sensor_id;sensor_type;location;lat;lon;timestamp;temperature;humidity
81222;DHT22;70691;52.492;13.420;2023-08-07T00:00:36;17.70;60.40
81222;DHT22;70691;52.492;13.420;2023-08-07T00:03:02;17.70;60.40
81222;DHT22;70691;52.492;13.420;2023-08-07T00:05:28;17.70;60.30
81222;DHT22;70691;52.492;13.420;2023-08-07T00:07:53;17.70;60.70
81222;DHT22;70691;52.492;13.420;2023-08-07T00:10:19;17.60;60.60
81222;DHT22;70691;52.492;13.420;2023-08-07T00:12:45;17.60;60.70
81222;DHT22;70691;52.492;13.420;2023-08-07T00:15:11;17.70;60.90
81222;DHT22;70691;52.492;13.420;2023-08-07T00:17:37;17.70;60.60
81222;DHT22;70691;52.492;13.420;2023-08-07T00:20:03;17.80;60.50
81222;DHT22;70691;52.492;13.420;2023-08-07T00:22:29;17.80;60.90
81222;DHT22;70691;52.492;13.420;2023-08-07T00:24:55;17.80;61.40
81222;DHT22;70691;52.492;13.420;2023-08-07T00:27:21;17.70;61.80
81222;DHT22;70691;52.492;13.420;2023-08-07T00:29:47;17.70;62.40
81222;DHT22;70691;52.492;13.420;2023-08-07T00:32:12;17.70;62.70
81222;DHT22;70691;52.492;13.420;2023-08-07T00:34:38;17.80;62.60
81222;DHT22;70691;52.492;13.420;2023-08-07T00:37:04;17.80;62.60
81222;DHT22;70691;52.492;13.420;2023-08-07T00:39:29;17.70;63.20
81222;DHT22;70691;52.492;13.420;2023-08-07T00:41:55;17.70;63.40
81222;DHT22;70691;52.492;13.420;2023-08-07T00:44:21;17.70;63.50
81222;DHT22;70691;52.492;13.420;2023-08-07T00:46:48;17.80;63.60
81222;DHT22;70691;52.492;13.420;2023-08-07T00:49:14;17.80;63.70
81222;DHT22;70691;52.492;13.420;2023-08-07T00:51:40;17.80;63.80
81222;DHT22;70691;52.492;13.420;2023-08-07T00:54:07;17.80;63.60
81222;DHT22;70691;52.492;13.420;2023-08-07T00:56:35;17.80;63.60
81222;DHT22;70691;52.492;13.420;2023-08-07T00:59:01;17.80;63.00
81222;DHT22;70691;52.492;13.420;2023-08-07T01:01:27;17.70;63.50
81222;DHT22;70691;52.492;13.420;2023-08-07T01:03:53;17.80;63.30
81222;DHT22;70691;52.492;13.420;2023-08-07T01:06:18;17.70;64.40
81222;DHT22;70691;52.492;13.420;2023-08-07T01:08:45;17.70;63.20
81222;DHT22;70691;52.492;13.420;2023-08-07T01:14:28;17.80;62.50
81222;DHT22;70691;52.492;13.420;2023-08-07T01:17:04;17.80;62.60
81222;DHT22;70691;52.492;13.420;2023-08-07T01:19:31;17.80;62.60
81222;DHT22;70691;52.492;13.420;2023-08-07T01:22:16;17.90;62.80
81222;DHT22;70691;52.492;13.420;2023-08-07T01:24:43;17.90;62.60
81222;DHT22;70691;52.492;13.420;2023-08-07T01:35:11;17.80;63.00
81222;DHT22;70691;52.492;13.420;2023-08-07T01:37:40;17.70;63.30
81222;DHT22;70691;52.492;13.420;2023-08-07T01:40:08;17.70;63.60
81222;DHT22;70691;52.492;13.420;2023-08-07T01:42:35;17.80;62.70
81222;DHT22;70691;52.492;13.420;2023-08-07T01:45:01;17.80;62.60
81222;DHT22;70691;52.492;13.420;2023-08-07T01:47:26;17.70;62.80
81222;DHT22;70691;52.492;13.420;2023-08-07T01:49:52;17.80;62.90
81222;DHT22;70691;52.492;13.420;2023-08-07T01:52:17;17.80;62.70
81222;DHT22;70691;52.492;13.420;2023-08-07T01:54:43;17.80;62.90
81222;DHT22;70691;52.492;13.420;2023-08-07T01:57:09;17.80;62.90
81222;DHT22;70691;52.492;13.420;2023-08-07T01:59:34;17.80;62.60
81222;DHT22;70691;52.492;13.420;2023-08-07T02:02:00;17.70;62.90
81222;DHT22;70691;52.492;13.420;2023-08-07T02:04:25;17.70;63.40
81222;DHT22;70691;52.492;13.420;2023-08-07T02:06:51;17.60;63.50
81222;DHT22;70691;52.492;13.420;2023-08-07T02:09:17;17.60;64.00
81222;DHT22;70691;52.492;13.420;2023-08-07T02:11:42;17.60;64.20
81222;DHT22;70691;52.492;13.420;2023-08-07T02:14:09;17.50;64.60
81222;DHT22;70691;52.492;13.420;2023-08-07T02:16:36;17.50;64.40
81222;DHT22;70691;52.492;13.420;2023-08-07T02:19:01;17.60;64.30
81222;DHT22;70691;52.492;13.420;2023-08-07T02:21:27;17.50;64.50
81222;DHT22;70691;52.492;13.420;2023-08-07T02:23:52;17.50;64.80
81222;DHT22;70691;52.492;13.420;2023-08-07T02:26:18;17.50;65.00
81222;DHT22;70691;52.492;13.420;2023-08-07T02:28:44;17.50;65.10
81222;DHT22;70691;52.492;13.420;2023-08-07T02:31:09;17.50;65.10
81222;DHT22;70691;52.492;13.420;2023-08-07T02:33:35;17.60;65.20
81222;DHT22;70691;52.492;13.420;2023-08-07T02:36:01;17.40;65.90
81222;DHT22;70691;52.492;13.420;2023-08-07T02:38:26;17.50;66.00
81222;DHT22;70691;52.492;13.420;2023-08-07T02:40:52;17.50;66.10
81222;DHT22;70691;52.492;13.420;2023-08-07T02:43:17;17.50;66.30
81222;DHT22;70691;52.492;13.420;2023-08-07T02:45:43;17.50;66.30
81222;DHT22;70691;52.492;13.420;2023-08-07T02:48:09;17.50;66.50
81222;DHT22;70691;52.492;13.420;2023-08-07T02:50:35;17.50;66.70
81222;DHT22;70691;52.492;13.420;2023-08-07T02:53:02;17.60;66.70
81222;DHT22;70691;52.492;13.420;2023-08-07T02:55:27;17.60;66.60
81222;DHT22;70691;52.492;13.420;2023-08-07T02:57:53;17.60;66.60
81222;DHT22;70691;52.492;13.420;2023-08-07T03:00:19;17.60;66.80
81222;DHT22;70691;52.492;13.420;2023-08-07T03:02:44;17.70;66.60
81222;DHT22;70691;52.492;13.420;2023-08-07T03:05:10;17.70;66.90
81222;DHT22;70691;52.492;13.420;2023-08-07T03:07:36;17.60;67.00
81222;DHT22;70691;52.492;13.420;2023-08-07T03:10:01;17.60;67.60
81222;DHT22;70691;52.492;13.420;2023-08-07T03:12:27;17.60;67.80
81222;DHT22;70691;52.492;13.420;2023-08-07T03:14:53;17.60;67.60
81222;DHT22;70691;52.492;13.420;2023-08-07T03:17:18;17.60;67.70
81222;DHT22;70691;52.492;13.420;2023-08-07T03:19:46;17.60;67.90
81222;DHT22;70691;52.492;13.420;2023-08-07T03:22:12;17.60;67.90
81222;DHT22;70691;52.492;13.420;2023-08-07T03:24:38;17.60;67.80
81222;DHT22;70691;52.492;13.420;2023-08-07T03:27:04;17.60;67.70
81222;DHT22;70691;52.492;13.420;2023-08-07T03:29:29;17.70;67.30
81222;DHT22;70691;52.492;13.420;2023-08-07T03:31:55;17.70;67.40
81222;DHT22;70691;52.492;13.420;2023-08-07T03:34:21;17.80;67.40
81222;DHT22;70691;52.492;13.420;2023-08-07T03:36:47;17.70;67.70
81222;DHT22;70691;52.492;13.420;2023-08-07T03:39:13;17.70;67.80
81222;DHT22;70691;52.492;13.420;2023-08-07T03:41:39;17.70;67.80
81222;DHT22;70691;52.492;13.420;2023-08-07T03:44:05;17.70;67.90
81222;DHT22;70691;52.492;13.420;2023-08-07T03:46:30;17.60;67.80
81222;DHT22;70691;52.492;13.420;2023-08-07T03:48:56;17.70;67.80
81222;DHT22;70691;52.492;13.420;2023-08-07T03:51:22;17.60;67.70
81222;DHT22;70691;52.492;13.420;2023-08-07T03:53:48;17.60;67.90
81222;DHT22;70691;52.492;13.420;2023-08-07T03:56:14;17.60;67.80
81222;DHT22;70691;52.492;13.420;2023-08-07T03:58:39;17.70;67.80
81222;DHT22;70691;52.492;13.420;2023-08-07T04:01:05;17.70;67.80
81222;DHT22;70691;52.492;13.420;2023-08-07T04:03:31;17.70;67.50
81222;DHT22;70691;52.492;13.420;2023-08-07T04:05:56;17.70;67.60
81222;DHT22;70691;52.492;13.420;2023-08-07T04:08:22;17.80;67.10
81222;DHT22;70691;52.492;13.420;2023-08-07T04:11:01;17.60;67.60
81222;DHT22;70691;52.492;13.420;2023-08-07T04:13:27;17.60;67.80
81222;DHT22;70691;52.492;13.420;2023-08-07T04:15:53;17.60;67.80
81222;DHT22;70691;52.492;13.420;2023-08-07T04:18:19;17.70;67.40
81222;DHT22;70691;52.492;13.420;2023-08-07T04:20:52;17.70;67.30
81222;DHT22;70691;52.492;13.420;2023-08-07T04:23:19;17.80;67.20
81222;DHT22;70691;52.492;13.420;2023-08-07T04:25:46;17.80;66.70
81222;DHT22;70691;52.492;13.420;2023-08-07T04:28:12;17.80;66.50
81222;DHT22;70691;52.492;13.420;2023-08-07T04:30:37;17.90;66.30
81222;DHT22;70691;52.492;13.420;2023-08-07T04:33:03;17.90;66.50
81222;DHT22;70691;52.492;13.420;2023-08-07T04:35:30;17.90;66.40
81222;DHT22;70691;52.492;13.420;2023-08-07T04:37:56;17.90;66.10
81222;DHT22;70691;52.492;13.420;2023-08-07T04:40:21;17.90;65.90
81222;DHT22;70691;52.492;13.420;2023-08-07T04:42:49;17.90;65.60
81222;DHT22;70691;52.492;13.420;2023-08-07T04:45:14;18.00;65.20
81222;DHT22;70691;52.492;13.420;2023-08-07T04:47:40;18.10;64.70
81222;DHT22;70691;52.492;13.420;2023-08-07T04:50:07;18.10;64.40
81222;DHT22;70691;52.492;13.420;2023-08-07T04:52:36;18.00;65.00
81222;DHT22;70691;52.492;13.420;2023-08-07T04:55:02;18.10;64.90
81222;DHT22;70691;52.492;13.420;2023-08-07T04:57:27;18.10;64.70
81222;DHT22;70691;52.492;13.420;2023-08-07T04:59:53;18.10;64.40
81222;DHT22;70691;52.492;13.420;2023-08-07T05:02:19;18.20;64.20
81222;DHT22;70691;52.492;13.420;2023-08-07T05:04:45;18.20;63.90
81222;DHT22;70691;52.492;13.420;2023-08-07T05:07:11;18.30;63.50
81222;DHT22;70691;52.492;13.420;2023-08-07T05:09:37;18.40;63.20
81222;DHT22;70691;52.492;13.420;2023-08-07T05:12:04;18.30;63.00
81222;DHT22;70691;52.492;13.420;2023-08-07T05:14:30;18.40;62.90
81222;DHT22;70691;52.492;13.420;2023-08-07T05:16:55;18.40;62.20
81222;DHT22;70691;52.492;13.420;2023-08-07T05:19:21;18.40;62.20
81222;DHT22;70691;52.492;13.420;2023-08-07T05:21:50;18.30;62.10
81222;DHT22;70691;52.492;13.420;2023-08-07T05:24:17;18.30;62.40
81222;DHT22;70691;52.492;13.420;2023-08-07T05:26:42;18.20;62.50
81222;DHT22;70691;52.492;13.420;2023-08-07T05:29:08;18.10;62.70
81222;DHT22;70691;52.492;13.420;2023-08-07T05:31:34;18.30;62.30
81222;DHT22;70691;52.492;13.420;2023-08-07T05:34:00;18.30;62.20
81222;DHT22;70691;52.492;13.420;2023-08-07T05:36:25;18.20;61.80
81222;DHT22;70691;52.492;13.420;2023-08-07T05:38:51;18.20;62.30
81222;DHT22;70691;52.492;13.420;2023-08-07T05:41:17;18.10;62.40
81222;DHT22;70691;52.492;13.420;2023-08-07T05:43:42;18.20;62.00
81222;DHT22;70691;52.492;13.420;2023-08-07T05:46:08;18.20;62.10
81222;DHT22;70691;52.492;13.420;2023-08-07T05:48:34;18.20;62.30
81222;DHT22;70691;52.492;13.420;2023-08-07T05:50:59;18.20;61.90
81222;DHT22;70691;52.492;13.420;2023-08-07T05:53:25;18.10;62.30
81222;DHT22;70691;52.492;13.420;2023-08-07T05:55:51;18.20;62.20
81222;DHT22;70691;52.492;13.420;2023-08-07T05:58:16;18.10;62.50
81222;DHT22;70691;52.492;13.420;2023-08-07T06:00:42;18.20;62.50
81222;DHT22;70691;52.492;13.420;2023-08-07T06:03:08;18.20;62.40
81222;DHT22;70691;52.492;13.420;2023-08-07T06:05:34;18.30;62.00
81222;DHT22;70691;52.492;13.420;2023-08-07T06:08:00;18.40;62.00
81222;DHT22;70691;52.492;13.420;2023-08-07T06:10:27;18.40;62.00
81222;DHT22;70691;52.492;13.420;2023-08-07T06:12:53;18.60;61.30
81222;DHT22;70691;52.492;13.420;2023-08-07T06:15:18;18.80;60.50
81222;DHT22;70691;52.492;13.420;2023-08-07T06:17:44;18.90;59.90
81222;DHT22;70691;52.492;13.420;2023-08-07T06:20:10;19.00;59.30
81222;DHT22;70691;52.492;13.420;2023-08-07T06:22:37;19.00;59.60
81222;DHT22;70691;52.492;13.420;2023-08-07T06:25:03;19.10;59.00
81222;DHT22;70691;52.492;13.420;2023-08-07T06:27:31;19.10;59.00
81222;DHT22;70691;52.492;13.420;2023-08-07T06:29:57;19.30;57.90
81222;DHT22;70691;52.492;13.420;2023-08-07T06:32:25;19.40;57.60
81222;DHT22;70691;52.492;13.420;2023-08-07T06:34:50;19.40;57.50
81222;DHT22;70691;52.492;13.420;2023-08-07T06:37:16;19.40;57.30
81222;DHT22;70691;52.492;13.420;2023-08-07T06:39:42;19.50;57.50
81222;DHT22;70691;52.492;13.420;2023-08-07T06:42:08;19.50;55.80
81222;DHT22;70691;52.492;13.420;2023-08-07T06:44:33;19.40;56.30
81222;DHT22;70691;52.492;13.420;2023-08-07T06:46:59;19.50;56.70
81222;DHT22;70691;52.492;13.420;2023-08-07T06:49:25;19.60;56.00
81222;DHT22;70691;52.492;13.420;2023-08-07T06:51:50;19.60;56.00
81222;DHT22;70691;52.492;13.420;2023-08-07T06:54:16;19.60;55.80
81222;DHT22;70691;52.492;13.420;2023-08-07T06:56:41;19.70;55.20
81222;DHT22;70691;52.492;13.420;2023-08-07T06:59:08;19.80;54.30
81222;DHT22;70691;52.492;13.420;2023-08-07T07:01:34;19.90;54.60
81222;DHT22;70691;52.492;13.420;2023-08-07T07:04:00;19.90;54.30
81222;DHT22;70691;52.492;13.420;2023-08-07T07:06:25;20.00;53.90
81222;DHT22;70691;52.492;13.420;2023-08-07T07:08:51;20.00;52.90
81222;DHT22;70691;52.492;13.420;2023-08-07T07:11:20;20.10;53.20
81222;DHT22;70691;52.492;13.420;2023-08-07T07:13:47;20.00;53.60
81222;DHT22;70691;52.492;13.420;2023-08-07T07:16:13;20.10;54.10
81222;DHT22;70691;52.492;13.420;2023-08-07T07:18:39;20.10;52.40
81222;DHT22;70691;52.492;13.420;2023-08-07T07:21:05;20.10;52.00
81222;DHT22;70691;52.492;13.420;2023-08-07T07:23:30;20.20;51.60
81222;DHT22;70691;52.492;13.420;2023-08-07T07:25:56;20.10;51.80
81222;DHT22;70691;52.492;13.420;2023-08-07T07:28:23;20.20;52.50
81222;DHT22;70691;52.492;13.420;2023-08-07T07:30:49;20.20;52.20
81222;DHT22;70691;52.492;13.420;2023-08-07T07:33:16;20.20;51.50
81222;DHT22;70691;52.492;13.420;2023-08-07T07:35:42;20.30;51.80
81222;DHT22;70691;52.492;13.420;2023-08-07T07:38:07;20.40;50.80
81222;DHT22;70691;52.492;13.420;2023-08-07T07:40:34;20.40;50.90
81222;DHT22;70691;52.492;13.420;2023-08-07T07:43:00;20.40;51.60
81222;DHT22;70691;52.492;13.420;2023-08-07T07:45:26;20.40;51.50
81222;DHT22;70691;52.492;13.420;2023-08-07T07:47:51;20.50;51.00
81222;DHT22;70691;52.492;13.420;2023-08-07T07:50:20;20.50;51.10
81222;DHT22;70691;52.492;13.420;2023-08-07T07:52:45;20.60;50.60
81222;DHT22;70691;52.492;13.420;2023-08-07T07:55:11;20.60;49.70
81222;DHT22;70691;52.492;13.420;2023-08-07T07:57:39;20.60;50.70
81222;DHT22;70691;52.492;13.420;2023-08-07T08:00:05;20.60;50.70
81222;DHT22;70691;52.492;13.420;2023-08-07T08:02:36;20.70;50.00
81222;DHT22;70691;52.492;13.420;2023-08-07T08:05:02;20.90;50.10
81222;DHT22;70691;52.492;13.420;2023-08-07T08:07:27;21.00;49.50
81222;DHT22;70691;52.492;13.420;2023-08-07T08:09:53;21.10;48.70
81222;DHT22;70691;52.492;13.420;2023-08-07T08:12:19;21.20;48.20
81222;DHT22;70691;52.492;13.420;2023-08-07T08:14:44;21.00;48.60
81222;DHT22;70691;52.492;13.420;2023-08-07T08:17:10;21.10;48.80
81222;DHT22;70691;52.492;13.420;2023-08-07T08:19:35;21.20;48.90
81222;DHT22;70691;52.492;13.420;2023-08-07T08:22:01;21.10;48.70
81222;DHT22;70691;52.492;13.420;2023-08-07T08:24:27;21.00;49.40
81222;DHT22;70691;52.492;13.420;2023-08-07T08:26:52;21.00;49.90
81222;DHT22;70691;52.492;13.420;2023-08-07T08:29:18;21.00;49.70
81222;DHT22;70691;52.492;13.420;2023-08-07T08:31:44;21.00;49.90
81222;DHT22;70691;52.492;13.420;2023-08-07T08:34:09;21.00;50.20
81222;DHT22;70691;52.492;13.420;2023-08-07T08:36:35;20.90;50.70
81222;DHT22;70691;52.492;13.420;2023-08-07T08:39:01;20.80;50.70
81222;DHT22;70691;52.492;13.420;2023-08-07T08:41:26;20.80;51.20
81222;DHT22;70691;52.492;13.420;2023-08-07T08:43:54;20.90;51.10
81222;DHT22;70691;52.492;13.420;2023-08-07T08:46:20;20.90;51.10
81222;DHT22;70691;52.492;13.420;2023-08-07T08:48:51;20.80;50.80
81222;DHT22;70691;52.492;13.420;2023-08-07T08:51:17;20.90;50.30
81222;DHT22;70691;52.492;13.420;2023-08-07T08:53:47;20.80;50.60
81222;DHT22;70691;52.492;13.420;2023-08-07T08:56:15;20.80;50.90
81222;DHT22;70691;52.492;13.420;2023-08-07T08:58:42;20.80;50.70
81222;DHT22;70691;52.492;13.420;2023-08-07T09:01:08;21.00;49.50
81222;DHT22;70691;52.492;13.420;2023-08-07T09:03:34;21.20;49.10
81222;DHT22;70691;52.492;13.420;2023-08-07T09:06:01;21.20;49.40
81222;DHT22;70691;52.492;13.420;2023-08-07T09:08:27;21.30;48.00
81222;DHT22;70691;52.492;13.420;2023-08-07T09:10:56;21.30;48.10
81222;DHT22;70691;52.492;13.420;2023-08-07T09:13:23;21.40;47.80
81222;DHT22;70691;52.492;13.420;2023-08-07T09:15:50;21.50;47.00
81222;DHT22;70691;52.492;13.420;2023-08-07T09:18:17;21.60;46.50
81222;DHT22;70691;52.492;13.420;2023-08-07T09:20:44;21.70;46.00
81222;DHT22;70691;52.492;13.420;2023-08-07T09:23:11;21.50;47.10
81222;DHT22;70691;52.492;13.420;2023-08-07T09:25:37;21.30;48.20
81222;DHT22;70691;52.492;13.420;2023-08-07T09:28:04;21.20;49.40
81222;DHT22;70691;52.492;13.420;2023-08-07T09:30:31;21.10;50.50
81222;DHT22;70691;52.492;13.420;2023-08-07T09:32:58;21.10;50.60
81222;DHT22;70691;52.492;13.420;2023-08-07T09:35:24;21.30;50.50
81222;DHT22;70691;52.492;13.420;2023-08-07T09:37:50;21.40;49.80
81222;DHT22;70691;52.492;13.420;2023-08-07T09:40:17;21.60;49.80
81222;DHT22;70691;52.492;13.420;2023-08-07T09:42:43;21.60;50.30
81222;DHT22;70691;52.492;13.420;2023-08-07T09:45:21;21.80;49.40
81222;DHT22;70691;52.492;13.420;2023-08-07T09:48:00;21.90;49.00
81222;DHT22;70691;52.492;13.420;2023-08-07T09:50:27;21.90;48.40
81222;DHT22;70691;52.492;13.420;2023-08-07T09:52:53;21.90;48.70
81222;DHT22;70691;52.492;13.420;2023-08-07T09:55:18;22.10;47.40
81222;DHT22;70691;52.492;13.420;2023-08-07T09:57:44;22.20;46.60
81222;DHT22;70691;52.492;13.420;2023-08-07T10:00:14;22.10;46.90
81222;DHT22;70691;52.492;13.420;2023-08-07T10:02:43;22.10;47.30
81222;DHT22;70691;52.492;13.420;2023-08-07T10:05:10;22.20;47.20
81222;DHT22;70691;52.492;13.420;2023-08-07T10:07:40;22.30;46.80
81222;DHT22;70691;52.492;13.420;2023-08-07T10:10:07;22.40;46.20
81222;DHT22;70691;52.492;13.420;2023-08-07T10:12:41;22.40;45.30
81222;DHT22;70691;52.492;13.420;2023-08-07T10:15:10;22.40;45.50
81222;DHT22;70691;52.492;13.420;2023-08-07T10:17:36;22.50;45.40
81222;DHT22;70691;52.492;13.420;2023-08-07T10:20:02;22.50;44.50
81222;DHT22;70691;52.492;13.420;2023-08-07T10:22:29;22.60;43.90
81222;DHT22;70691;52.492;13.420;2023-08-07T10:24:58;22.70;43.20
81222;DHT22;70691;52.492;13.420;2023-08-07T10:27:26;22.60;44.20
81222;DHT22;70691;52.492;13.420;2023-08-07T10:29:53;22.50;43.80
81222;DHT22;70691;52.492;13.420;2023-08-07T10:32:21;22.50;44.10
81222;DHT22;70691;52.492;13.420;2023-08-07T10:34:49;22.40;43.70
81222;DHT22;70691;52.492;13.420;2023-08-07T10:37:41;22.40;44.30
81222;DHT22;70691;52.492;13.420;2023-08-07T10:40:08;22.50;43.40
81222;DHT22;70691;52.492;13.420;2023-08-07T10:43:13;22.50;43.40
81222;DHT22;70691;52.492;13.420;2023-08-07T10:45:39;22.70;42.70
81222;DHT22;70691;52.492;13.420;2023-08-07T10:48:05;22.70;41.80
81222;DHT22;70691;52.492;13.420;2023-08-07T10:50:33;22.70;41.70
81222;DHT22;70691;52.492;13.420;2023-08-07T10:53:03;22.70;42.30
81222;DHT22;70691;52.492;13.420;2023-08-07T10:55:46;22.80;42.30
81222;DHT22;70691;52.492;13.420;2023-08-07T10:58:29;22.80;41.90
81222;DHT22;70691;52.492;13.420;2023-08-07T11:03:59;22.70;42.50
81222;DHT22;70691;52.492;13.420;2023-08-07T11:06:30;22.80;42.70
81222;DHT22;70691;52.492;13.420;2023-08-07T11:08:57;22.90;42.60
81222;DHT22;70691;52.492;13.420;2023-08-07T11:11:23;22.70;41.80
81222;DHT22;70691;52.492;13.420;2023-08-07T11:13:49;22.60;42.70
81222;DHT22;70691;52.492;13.420;2023-08-07T11:16:16;22.40;46.10
81222;DHT22;70691;52.492;13.420;2023-08-07T11:18:43;22.20;48.40
81222;DHT22;70691;52.492;13.420;2023-08-07T11:21:09;21.90;49.60
81222;DHT22;70691;52.492;13.420;2023-08-07T11:23:37;21.60;48.80
81222;DHT22;70691;52.492;13.420;2023-08-07T11:26:02;21.40;50.30
81222;DHT22;70691;52.492;13.420;2023-08-07T11:28:30;21.40;50.30
81222;DHT22;70691;52.492;13.420;2023-08-07T11:30:56;21.40;50.50
81222;DHT22;70691;52.492;13.420;2023-08-07T11:33:23;21.30;49.80
81222;DHT22;70691;52.492;13.420;2023-08-07T11:35:49;21.30;50.50
81222;DHT22;70691;52.492;13.420;2023-08-07T11:38:39;21.30;51.50
81222;DHT22;70691;52.492;13.420;2023-08-07T11:41:06;21.30;50.90
81222;DHT22;70691;52.492;13.420;2023-08-07T11:43:34;21.20;51.70
81222;DHT22;70691;52.492;13.420;2023-08-07T11:46:04;21.00;52.20
81222;DHT22;70691;52.492;13.420;2023-08-07T11:48:33;21.00;52.50
81222;DHT22;70691;52.492;13.420;2023-08-07T11:51:00;20.80;54.90
81222;DHT22;70691;52.492;13.420;2023-08-07T11:53:27;20.80;54.60
81222;DHT22;70691;52.492;13.420;2023-08-07T11:56:04;20.80;54.50
81222;DHT22;70691;52.492;13.420;2023-08-07T11:58:44;21.10;53.70
81222;DHT22;70691;52.492;13.420;2023-08-07T12:01:26;21.20;52.30
81222;DHT22;70691;52.492;13.420;2023-08-07T12:06:33;21.60;50.40
81222;DHT22;70691;52.492;13.420;2023-08-07T12:09:01;21.70;50.20
81222;DHT22;70691;52.492;13.420;2023-08-07T12:11:29;21.80;49.80
81222;DHT22;70691;52.492;13.420;2023-08-07T12:13:55;22.00;48.30
81222;DHT22;70691;52.492;13.420;2023-08-07T12:16:21;22.00;48.50
81222;DHT22;70691;52.492;13.420;2023-08-07T12:18:49;22.00;48.90
81222;DHT22;70691;52.492;13.420;2023-08-07T12:21:16;22.00;49.00
81222;DHT22;70691;52.492;13.420;2023-08-07T12:23:44;22.00;48.50
81222;DHT22;70691;52.492;13.420;2023-08-07T12:26:10;21.90;49.00
81222;DHT22;70691;52.492;13.420;2023-08-07T12:28:36;21.90;49.00
81222;DHT22;70691;52.492;13.420;2023-08-07T12:31:02;21.90;48.40
81222;DHT22;70691;52.492;13.420;2023-08-07T12:33:31;21.90;47.90
81222;DHT22;70691;52.492;13.420;2023-08-07T12:35:58;21.90;48.20
81222;DHT22;70691;52.492;13.420;2023-08-07T12:38:24;21.90;48.30
81222;DHT22;70691;52.492;13.420;2023-08-07T12:40:50;21.90;48.80
81222;DHT22;70691;52.492;13.420;2023-08-07T12:43:15;21.90;47.50
81222;DHT22;70691;52.492;13.420;2023-08-07T12:45:41;21.60;49.00
81222;DHT22;70691;52.492;13.420;2023-08-07T12:48:07;21.60;49.30
81222;DHT22;70691;52.492;13.420;2023-08-07T12:50:33;21.30;50.50
81222;DHT22;70691;52.492;13.420;2023-08-07T12:52:58;21.40;50.30
81222;DHT22;70691;52.492;13.420;2023-08-07T12:55:25;21.40;49.80
81222;DHT22;70691;52.492;13.420;2023-08-07T12:57:52;21.40;50.30
81222;DHT22;70691;52.492;13.420;2023-08-07T13:00:18;21.50;49.40
81222;DHT22;70691;52.492;13.420;2023-08-07T13:02:45;21.50;48.00
81222;DHT22;70691;52.492;13.420;2023-08-07T13:05:12;21.40;47.70
81222;DHT22;70691;52.492;13.420;2023-08-07T13:07:39;21.20;49.40
81222;DHT22;70691;52.492;13.420;2023-08-07T13:10:06;21.10;49.10
81222;DHT22;70691;52.492;13.420;2023-08-07T13:12:36;21.10;48.10
81222;DHT22;70691;52.492;13.420;2023-08-07T13:15:02;21.30;46.00
81222;DHT22;70691;52.492;13.420;2023-08-07T13:17:28;21.40;45.60
81222;DHT22;70691;52.492;13.420;2023-08-07T13:19:54;21.60;45.50
81222;DHT22;70691;52.492;13.420;2023-08-07T13:22:20;21.80;46.30
81222;DHT22;70691;52.492;13.420;2023-08-07T13:24:45;22.00;46.60
81222;DHT22;70691;52.492;13.420;2023-08-07T13:27:11;22.10;46.40
81222;DHT22;70691;52.492;13.420;2023-08-07T13:29:37;22.20;47.30
81222;DHT22;70691;52.492;13.420;2023-08-07T13:32:03;22.40;44.70
81222;DHT22;70691;52.492;13.420;2023-08-07T13:34:37;22.40;40.90
81222;DHT22;70691;52.492;13.420;2023-08-07T13:37:04;22.40;40.30
81222;DHT22;70691;52.492;13.420;2023-08-07T13:39:30;22.50;36.70
81222;DHT22;70691;52.492;13.420;2023-08-07T13:41:56;22.40;36.50
81222;DHT22;70691;52.492;13.420;2023-08-07T13:44:21;22.40;36.90
81222;DHT22;70691;52.492;13.420;2023-08-07T13:46:48;22.40;35.80
81222;DHT22;70691;52.492;13.420;2023-08-07T13:49:14;22.30;36.00
81222;DHT22;70691;52.492;13.420;2023-08-07T13:51:40;22.20;36.60
81222;DHT22;70691;52.492;13.420;2023-08-07T13:54:06;22.10;36.10
81222;DHT22;70691;52.492;13.420;2023-08-07T13:56:33;22.10;36.40
81222;DHT22;70691;52.492;13.420;2023-08-07T13:58:59;22.10;36.30
81222;DHT22;70691;52.492;13.420;2023-08-07T14:01:25;22.00;36.00
81222;DHT22;70691;52.492;13.420;2023-08-07T14:03:51;21.90;36.10
81222;DHT22;70691;52.492;13.420;2023-08-07T14:06:17;21.90;36.30
81222;DHT22;70691;52.492;13.420;2023-08-07T14:08:42;21.90;36.40
81222;DHT22;70691;52.492;13.420;2023-08-07T14:11:08;22.00;36.40
81222;DHT22;70691;52.492;13.420;2023-08-07T14:13:34;21.90;36.70
81222;DHT22;70691;52.492;13.420;2023-08-07T14:15:59;21.90;37.40
81222;DHT22;70691;52.492;13.420;2023-08-07T14:18:25;21.90;36.90
81222;DHT22;70691;52.492;13.420;2023-08-07T14:20:52;21.90;36.90
81222;DHT22;70691;52.492;13.420;2023-08-07T14:23:17;21.90;36.60
81222;DHT22;70691;52.492;13.420;2023-08-07T14:25:44;21.90;36.90
81222;DHT22;70691;52.492;13.420;2023-08-07T14:28:10;21.90;37.20
81222;DHT22;70691;52.492;13.420;2023-08-07T14:30:36;21.80;37.50
81222;DHT22;70691;52.492;13.420;2023-08-07T14:33:01;21.80;37.50
81222;DHT22;70691;52.492;13.420;2023-08-07T14:35:27;21.80;36.90
81222;DHT22;70691;52.492;13.420;2023-08-07T14:37:53;21.60;37.00
81222;DHT22;70691;52.492;13.420;2023-08-07T14:40:18;21.60;37.10
81222;DHT22;70691;52.492;13.420;2023-08-07T14:42:44;21.60;36.90
81222;DHT22;70691;52.492;13.420;2023-08-07T14:45:10;21.70;36.50
81222;DHT22;70691;52.492;13.420;2023-08-07T14:47:36;21.70;36.10
81222;DHT22;70691;52.492;13.420;2023-08-07T14:50:02;21.80;35.90
81222;DHT22;70691;52.492;13.420;2023-08-07T14:52:27;21.90;35.50
81222;DHT22;70691;52.492;13.420;2023-08-07T14:54:53;21.90;35.60
81222;DHT22;70691;52.492;13.420;2023-08-07T14:57:21;22.00;35.40
81222;DHT22;70691;52.492;13.420;2023-08-07T14:59:47;22.00;35.20
81222;DHT22;70691;52.492;13.420;2023-08-07T15:02:12;21.90;35.60
81222;DHT22;70691;52.492;13.420;2023-08-07T15:04:38;21.90;35.70
81222;DHT22;70691;52.492;13.420;2023-08-07T15:07:04;21.80;36.50
81222;DHT22;70691;52.492;13.420;2023-08-07T15:09:30;21.70;36.50
81222;DHT22;70691;52.492;13.420;2023-08-07T15:11:55;21.80;35.90
81222;DHT22;70691;52.492;13.420;2023-08-07T15:14:21;21.90;35.40
81222;DHT22;70691;52.492;13.420;2023-08-07T15:16:47;21.90;34.20
81222;DHT22;70691;52.492;13.420;2023-08-07T15:19:12;21.80;35.20
81222;DHT22;70691;52.492;13.420;2023-08-07T15:21:38;21.60;35.60
81222;DHT22;70691;52.492;13.420;2023-08-07T15:24:04;21.50;35.80
81222;DHT22;70691;52.492;13.420;2023-08-07T15:26:30;21.60;35.80
81222;DHT22;70691;52.492;13.420;2023-08-07T15:28:56;21.60;35.90